METAR Data
IDs: Format: Raw Decoded Include TAF

Data at: 1242 UTC 26 Feb 2021

KBWG 261153Z AUTO 07008KT 10SM CLR 04/M02 A3017 RMK AO2 SLP220 T00441022 10061 20044 58014